sensor_id;sensor_type;location;lat;lon;timestamp;P1;durP1;ratioP1;P2;durP2;ratioP2
25319;SDS011;13256;49.012;8.610;2023-05-02T00:00:52;5.28;;;3.92;;
25319;SDS011;13256;49.012;8.610;2023-05-02T00:03:19;7.38;;;4.50;;
25319;SDS011;13256;49.012;8.610;2023-05-02T00:05:47;6.35;;;4.35;;
25319;SDS011;13256;49.012;8.610;2023-05-02T00:08:14;7.32;;;4.43;;
25319;SDS011;13256;49.012;8.610;2023-05-02T00:10:46;5.43;;;3.92;;
25319;SDS011;13256;49.012;8.610;2023-05-02T00:13:16;5.30;;;4.07;;
25319;SDS011;13256;49.012;8.610;2023-05-02T00:15:43;6.03;;;4.18;;
25319;SDS011;13256;49.012;8.610;2023-05-02T00:18:16;5.68;;;4.18;;
25319;SDS011;13256;49.012;8.610;2023-05-02T00:20:46;6.05;;;4.15;;
25319;SDS011;13256;49.012;8.610;2023-05-02T00:23:16;7.55;;;4.88;;
25319;SDS011;13256;49.012;8.610;2023-05-02T00:25:43;6.22;;;4.53;;
25319;SDS011;13256;49.012;8.610;2023-05-02T00:28:11;6.47;;;4.28;;
25319;SDS011;13256;49.012;8.610;2023-05-02T00:30:46;6.75;;;5.03;;
25319;SDS011;13256;49.012;8.610;2023-05-02T00:33:46;7.63;;;5.20;;
25319;SDS011;13256;49.012;8.610;2023-05-02T00:36:14;6.20;;;4.55;;
25319;SDS011;13256;49.012;8.610;2023-05-02T00:38:43;8.73;;;4.88;;
25319;SDS011;13256;49.012;8.610;2023-05-02T00:41:10;7.22;;;4.53;;
25319;SDS011;13256;49.012;8.610;2023-05-02T00:43:44;10.60;;;5.10;;
25319;SDS011;13256;49.012;8.610;2023-05-02T00:46:10;7.25;;;5.22;;
25319;SDS011;13256;49.012;8.610;2023-05-02T00:48:39;5.50;;;4.07;;
25319;SDS011;13256;49.012;8.610;2023-05-02T00:51:06;10.43;;;5.03;;
25319;SDS011;13256;49.012;8.610;2023-05-02T00:53:37;8.95;;;4.82;;
25319;SDS011;13256;49.012;8.610;2023-05-02T00:56:07;7.32;;;5.05;;
25319;SDS011;13256;49.012;8.610;2023-05-02T00:58:35;6.40;;;4.53;;
25319;SDS011;13256;49.012;8.610;2023-05-02T01:14:49;6.40;;;4.38;;
25319;SDS011;13256;49.012;8.610;2023-05-02T01:17:23;4.30;;;3.78;;
25319;SDS011;13256;49.012;8.610;2023-05-02T01:19:58;5.75;;;4.25;;
25319;SDS011;13256;49.012;8.610;2023-05-02T01:22:30;4.35;;;3.65;;
25319;SDS011;13256;49.012;8.610;2023-05-02T01:30:27;4.28;;;3.78;;
25319;SDS011;13256;49.012;8.610;2023-05-02T01:32:56;7.22;;;4.40;;
25319;SDS011;13256;49.012;8.610;2023-05-02T01:35:29;5.82;;;4.53;;
25319;SDS011;13256;49.012;8.610;2023-05-02T01:37:58;6.97;;;4.72;;
25319;SDS011;13256;49.012;8.610;2023-05-02T01:40:31;12.27;;;6.10;;
25319;SDS011;13256;49.012;8.610;2023-05-02T01:43:04;13.15;;;6.35;;
25319;SDS011;13256;49.012;8.610;2023-05-02T01:45:36;6.90;;;5.05;;
25319;SDS011;13256;49.012;8.610;2023-05-02T01:48:06;7.75;;;4.80;;
25319;SDS011;13256;49.012;8.610;2023-05-02T01:50:36;7.75;;;4.13;;
25319;SDS011;13256;49.012;8.610;2023-05-02T01:53:04;5.18;;;4.22;;
25319;SDS011;13256;49.012;8.610;2023-05-02T01:55:33;5.05;;;4.13;;
25319;SDS011;13256;49.012;8.610;2023-05-02T01:58:01;7.15;;;4.22;;
25319;SDS011;13256;49.012;8.610;2023-05-02T02:00:33;5.80;;;4.15;;
25319;SDS011;13256;49.012;8.610;2023-05-02T02:03:01;5.93;;;4.05;;
25319;SDS011;13256;49.012;8.610;2023-05-02T02:05:37;5.55;;;4.13;;
25319;SDS011;13256;49.012;8.610;2023-05-02T02:08:07;7.22;;;4.65;;
25319;SDS011;13256;49.012;8.610;2023-05-02T02:10:42;4.60;;;3.70;;
25319;SDS011;13256;49.012;8.610;2023-05-02T02:16:11;6.05;;;4.03;;
25319;SDS011;13256;49.012;8.610;2023-05-02T02:18:44;6.90;;;4.10;;
25319;SDS011;13256;49.012;8.610;2023-05-02T02:21:15;7.10;;;4.13;;
25319;SDS011;13256;49.012;8.610;2023-05-02T02:24:15;6.88;;;4.75;;
25319;SDS011;13256;49.012;8.610;2023-05-02T02:26:43;6.43;;;4.90;;
25319;SDS011;13256;49.012;8.610;2023-05-02T02:29:36;6.28;;;4.57;;
25319;SDS011;13256;49.012;8.610;2023-05-02T02:32:03;6.57;;;3.72;;
25319;SDS011;13256;49.012;8.610;2023-05-02T02:34:30;5.07;;;4.10;;
25319;SDS011;13256;49.012;8.610;2023-05-02T02:37:20;6.53;;;3.90;;
25319;SDS011;13256;49.012;8.610;2023-05-02T02:40:16;5.53;;;4.30;;
25319;SDS011;13256;49.012;8.610;2023-05-02T02:46:00;4.70;;;3.33;;
25319;SDS011;13256;49.012;8.610;2023-05-02T02:51:46;5.18;;;3.75;;
25319;SDS011;13256;49.012;8.610;2023-05-02T02:54:53;6.10;;;4.22;;
25319;SDS011;13256;49.012;8.610;2023-05-02T03:00:23;6.93;;;3.88;;
25319;SDS011;13256;49.012;8.610;2023-05-02T03:02:55;7.28;;;4.07;;
25319;SDS011;13256;49.012;8.610;2023-05-02T03:05:28;8.68;;;4.50;;
25319;SDS011;13256;49.012;8.610;2023-05-02T03:07:58;7.93;;;4.60;;
25319;SDS011;13256;49.012;8.610;2023-05-02T03:10:26;6.68;;;3.85;;
25319;SDS011;13256;49.012;8.610;2023-05-02T03:12:54;6.32;;;4.30;;
25319;SDS011;13256;49.012;8.610;2023-05-02T03:18:29;14.75;;;4.15;;
25319;SDS011;13256;49.012;8.610;2023-05-02T03:20:57;6.05;;;4.05;;
25319;SDS011;13256;49.012;8.610;2023-05-02T03:23:24;6.75;;;4.57;;
25319;SDS011;13256;49.012;8.610;2023-05-02T03:25:54;5.57;;;4.28;;
25319;SDS011;13256;49.012;8.610;2023-05-02T03:28:23;6.82;;;4.25;;
25319;SDS011;13256;49.012;8.610;2023-05-02T03:30:52;5.10;;;3.97;;
25319;SDS011;13256;49.012;8.610;2023-05-02T03:33:21;7.55;;;3.92;;
25319;SDS011;13256;49.012;8.610;2023-05-02T03:35:47;6.03;;;3.83;;
25319;SDS011;13256;49.012;8.610;2023-05-02T03:38:14;5.90;;;4.30;;
25319;SDS011;13256;49.012;8.610;2023-05-02T03:41:13;8.07;;;4.85;;
25319;SDS011;13256;49.012;8.610;2023-05-02T03:43:52;5.78;;;3.97;;
25319;SDS011;13256;49.012;8.610;2023-05-02T03:46:21;6.35;;;4.10;;
25319;SDS011;13256;49.012;8.610;2023-05-02T03:48:51;5.22;;;4.03;;
25319;SDS011;13256;49.012;8.610;2023-05-02T03:51:18;6.95;;;4.15;;
25319;SDS011;13256;49.012;8.610;2023-05-02T03:53:51;7.93;;;4.80;;
25319;SDS011;13256;49.012;8.610;2023-05-02T03:56:18;9.80;;;4.15;;
25319;SDS011;13256;49.012;8.610;2023-05-02T03:58:54;6.20;;;4.03;;
25319;SDS011;13256;49.012;8.610;2023-05-02T04:01:24;7.18;;;4.88;;
25319;SDS011;13256;49.012;8.610;2023-05-02T04:03:56;10.70;;;6.78;;
25319;SDS011;13256;49.012;8.610;2023-05-02T04:06:28;8.98;;;6.30;;
25319;SDS011;13256;49.012;8.610;2023-05-02T04:08:58;8.05;;;4.75;;
25319;SDS011;13256;49.012;8.610;2023-05-02T04:11:31;6.15;;;4.57;;
25319;SDS011;13256;49.012;8.610;2023-05-02T04:14:00;6.10;;;4.60;;
25319;SDS011;13256;49.012;8.610;2023-05-02T04:16:27;8.00;;;4.18;;
25319;SDS011;13256;49.012;8.610;2023-05-02T04:18:56;7.10;;;4.90;;
25319;SDS011;13256;49.012;8.610;2023-05-02T04:21:25;7.85;;;4.80;;
25319;SDS011;13256;49.012;8.610;2023-05-02T04:23:52;8.65;;;4.28;;
25319;SDS011;13256;49.012;8.610;2023-05-02T04:26:21;8.88;;;4.28;;
25319;SDS011;13256;49.012;8.610;2023-05-02T04:28:55;5.40;;;3.83;;
25319;SDS011;13256;49.012;8.610;2023-05-02T04:31:21;7.63;;;4.43;;
25319;SDS011;13256;49.012;8.610;2023-05-02T04:36:50;7.53;;;4.25;;
25319;SDS011;13256;49.012;8.610;2023-05-02T04:39:22;6.07;;;4.07;;
25319;SDS011;13256;49.012;8.610;2023-05-02T04:41:59;6.25;;;4.97;;
25319;SDS011;13256;49.012;8.610;2023-05-02T04:44:28;7.65;;;3.95;;
25319;SDS011;13256;49.012;8.610;2023-05-02T04:46:56;6.28;;;4.07;;
25319;SDS011;13256;49.012;8.610;2023-05-02T04:49:23;5.88;;;4.03;;
25319;SDS011;13256;49.012;8.610;2023-05-02T04:51:50;4.95;;;3.78;;
25319;SDS011;13256;49.012;8.610;2023-05-02T04:54:19;5.82;;;4.53;;
25319;SDS011;13256;49.012;8.610;2023-05-02T04:56:47;7.65;;;4.60;;
25319;SDS011;13256;49.012;8.610;2023-05-02T04:59:15;6.35;;;4.53;;
25319;SDS011;13256;49.012;8.610;2023-05-02T05:01:45;6.40;;;4.75;;
25319;SDS011;13256;49.012;8.610;2023-05-02T05:04:12;8.48;;;5.60;;
25319;SDS011;13256;49.012;8.610;2023-05-02T05:06:40;6.50;;;4.57;;
25319;SDS011;13256;49.012;8.610;2023-05-02T05:09:07;7.78;;;4.85;;
25319;SDS011;13256;49.012;8.610;2023-05-02T05:11:35;6.43;;;4.65;;
25319;SDS011;13256;49.012;8.610;2023-05-02T05:14:06;7.15;;;4.70;;
25319;SDS011;13256;49.012;8.610;2023-05-02T05:16:38;8.40;;;5.10;;
25319;SDS011;13256;49.012;8.610;2023-05-02T05:19:09;7.32;;;5.35;;
25319;SDS011;13256;49.012;8.610;2023-05-02T05:21:37;10.05;;;5.53;;
25319;SDS011;13256;49.012;8.610;2023-05-02T05:24:08;6.60;;;4.68;;
25319;SDS011;13256;49.012;8.610;2023-05-02T05:26:37;7.63;;;4.78;;
25319;SDS011;13256;49.012;8.610;2023-05-02T05:29:08;8.80;;;5.78;;
25319;SDS011;13256;49.012;8.610;2023-05-02T05:31:44;6.65;;;5.28;;
25319;SDS011;13256;49.012;8.610;2023-05-02T05:34:16;11.10;;;6.13;;
25319;SDS011;13256;49.012;8.610;2023-05-02T05:36:45;11.15;;;5.82;;
25319;SDS011;13256;49.012;8.610;2023-05-02T05:39:12;7.57;;;5.07;;
25319;SDS011;13256;49.012;8.610;2023-05-02T05:41:41;7.93;;;5.55;;
25319;SDS011;13256;49.012;8.610;2023-05-02T05:44:15;9.50;;;5.40;;
25319;SDS011;13256;49.012;8.610;2023-05-02T05:46:43;7.63;;;6.20;;
25319;SDS011;13256;49.012;8.610;2023-05-02T05:49:35;8.43;;;6.20;;
25319;SDS011;13256;49.012;8.610;2023-05-02T05:52:09;7.40;;;5.55;;
25319;SDS011;13256;49.012;8.610;2023-05-02T05:54:36;9.10;;;6.07;;
25319;SDS011;13256;49.012;8.610;2023-05-02T05:57:02;9.70;;;6.25;;
25319;SDS011;13256;49.012;8.610;2023-05-02T05:59:33;9.98;;;5.95;;
25319;SDS011;13256;49.012;8.610;2023-05-02T06:02:07;7.65;;;5.85;;
25319;SDS011;13256;49.012;8.610;2023-05-02T06:04:40;8.57;;;6.00;;
25319;SDS011;13256;49.012;8.610;2023-05-02T06:07:08;9.43;;;6.00;;
25319;SDS011;13256;49.012;8.610;2023-05-02T06:09:35;9.63;;;6.70;;
25319;SDS011;13256;49.012;8.610;2023-05-02T06:12:07;11.48;;;6.90;;
25319;SDS011;13256;49.012;8.610;2023-05-02T06:14:37;9.07;;;6.53;;
25319;SDS011;13256;49.012;8.610;2023-05-02T06:17:04;12.60;;;7.70;;
25319;SDS011;13256;49.012;8.610;2023-05-02T06:19:33;11.23;;;7.78;;
25319;SDS011;13256;49.012;8.610;2023-05-02T06:22:01;11.27;;;7.15;;
25319;SDS011;13256;49.012;8.610;2023-05-02T06:24:31;11.50;;;7.65;;
25319;SDS011;13256;49.012;8.610;2023-05-02T06:27:00;9.73;;;6.18;;
25319;SDS011;13256;49.012;8.610;2023-05-02T06:29:27;10.27;;;6.30;;
25319;SDS011;13256;49.012;8.610;2023-05-02T06:32:00;13.45;;;8.18;;
25319;SDS011;13256;49.012;8.610;2023-05-02T06:34:27;13.32;;;8.57;;
25319;SDS011;13256;49.012;8.610;2023-05-02T06:36:56;12.23;;;7.80;;
25319;SDS011;13256;49.012;8.610;2023-05-02T06:39:25;13.63;;;8.63;;
25319;SDS011;13256;49.012;8.610;2023-05-02T06:41:56;12.98;;;8.30;;
25319;SDS011;13256;49.012;8.610;2023-05-02T06:44:23;11.43;;;7.43;;
25319;SDS011;13256;49.012;8.610;2023-05-02T06:46:51;11.77;;;8.52;;
25319;SDS011;13256;49.012;8.610;2023-05-02T06:49:19;14.05;;;8.48;;
25319;SDS011;13256;49.012;8.610;2023-05-02T06:51:55;14.25;;;8.95;;
25319;SDS011;13256;49.012;8.610;2023-05-02T06:54:21;10.75;;;7.97;;
25319;SDS011;13256;49.012;8.610;2023-05-02T06:59:53;16.60;;;10.70;;
25319;SDS011;13256;49.012;8.610;2023-05-02T07:02:21;15.63;;;9.63;;
25319;SDS011;13256;49.012;8.610;2023-05-02T07:04:52;18.42;;;11.85;;
25319;SDS011;13256;49.012;8.610;2023-05-02T07:07:28;17.60;;;11.68;;
25319;SDS011;13256;49.012;8.610;2023-05-02T07:09:54;20.67;;;13.55;;
25319;SDS011;13256;49.012;8.610;2023-05-02T07:12:25;24.77;;;14.52;;
25319;SDS011;13256;49.012;8.610;2023-05-02T07:14:52;26.73;;;14.10;;
25319;SDS011;13256;49.012;8.610;2023-05-02T07:20:15;25.25;;;15.35;;
25319;SDS011;13256;49.012;8.610;2023-05-02T07:22:41;24.75;;;15.27;;
25319;SDS011;13256;49.012;8.610;2023-05-02T07:25:08;25.05;;;15.27;;
25319;SDS011;13256;49.012;8.610;2023-05-02T07:27:35;25.58;;;15.18;;
25319;SDS011;13256;49.012;8.610;2023-05-02T07:30:08;31.52;;;17.90;;
25319;SDS011;13256;49.012;8.610;2023-05-02T07:32:35;26.83;;;15.18;;
25319;SDS011;13256;49.012;8.610;2023-05-02T07:35:29;26.92;;;15.70;;
25319;SDS011;13256;49.012;8.610;2023-05-02T07:38:02;26.70;;;15.35;;
25319;SDS011;13256;49.012;8.610;2023-05-02T07:40:29;30.17;;;16.60;;
25319;SDS011;13256;49.012;8.610;2023-05-02T07:42:56;30.48;;;17.73;;
25319;SDS011;13256;49.012;8.610;2023-05-02T07:45:26;27.75;;;16.30;;
25319;SDS011;13256;49.012;8.610;2023-05-02T07:47:53;30.73;;;17.05;;
25319;SDS011;13256;49.012;8.610;2023-05-02T07:50:22;31.27;;;18.42;;
25319;SDS011;13256;49.012;8.610;2023-05-02T07:52:50;30.98;;;18.08;;
25319;SDS011;13256;49.012;8.610;2023-05-02T07:55:16;34.97;;;19.90;;
25319;SDS011;13256;49.012;8.610;2023-05-02T07:57:47;31.35;;;19.13;;
25319;SDS011;13256;49.012;8.610;2023-05-02T08:00:17;30.25;;;17.27;;
25319;SDS011;13256;49.012;8.610;2023-05-02T08:02:47;35.78;;;19.40;;
25319;SDS011;13256;49.012;8.610;2023-05-02T08:05:15;33.33;;;18.98;;
25319;SDS011;13256;49.012;8.610;2023-05-02T08:07:43;30.00;;;17.30;;
25319;SDS011;13256;49.012;8.610;2023-05-02T08:10:11;32.38;;;17.50;;
25319;SDS011;13256;49.012;8.610;2023-05-02T08:12:38;31.25;;;17.65;;
25319;SDS011;13256;49.012;8.610;2023-05-02T08:15:10;34.17;;;18.63;;
25319;SDS011;13256;49.012;8.610;2023-05-02T08:17:40;34.03;;;18.40;;
25319;SDS011;13256;49.012;8.610;2023-05-02T08:20:18;31.63;;;17.67;;
25319;SDS011;13256;49.012;8.610;2023-05-02T08:22:47;32.38;;;17.73;;
25319;SDS011;13256;49.012;8.610;2023-05-02T08:25:16;28.40;;;17.15;;
25319;SDS011;13256;49.012;8.610;2023-05-02T08:27:44;35.17;;;19.50;;
25319;SDS011;13256;49.012;8.610;2023-05-02T08:30:11;32.95;;;18.45;;
25319;SDS011;13256;49.012;8.610;2023-05-02T08:32:38;30.70;;;18.95;;
25319;SDS011;13256;49.012;8.610;2023-05-02T08:35:05;39.08;;;19.70;;
25319;SDS011;13256;49.012;8.610;2023-05-02T08:37:34;31.73;;;19.33;;
25319;SDS011;13256;49.012;8.610;2023-05-02T08:40:02;33.03;;;19.02;;
25319;SDS011;13256;49.012;8.610;2023-05-02T08:42:31;32.85;;;18.45;;
25319;SDS011;13256;49.012;8.610;2023-05-02T08:44:59;36.85;;;20.15;;
25319;SDS011;13256;49.012;8.610;2023-05-02T08:47:30;37.78;;;20.80;;
25319;SDS011;13256;49.012;8.610;2023-05-02T08:50:01;32.95;;;18.50;;
25319;SDS011;13256;49.012;8.610;2023-05-02T08:52:31;34.85;;;20.15;;
25319;SDS011;13256;49.012;8.610;2023-05-02T08:55:08;33.22;;;18.83;;
25319;SDS011;13256;49.012;8.610;2023-05-02T08:57:42;33.53;;;17.92;;
25319;SDS011;13256;49.012;8.610;2023-05-02T09:00:12;37.55;;;19.95;;
25319;SDS011;13256;49.012;8.610;2023-05-02T09:08:43;37.28;;;20.45;;
25319;SDS011;13256;49.012;8.610;2023-05-02T09:11:15;39.58;;;20.33;;
25319;SDS011;13256;49.012;8.610;2023-05-02T09:13:48;35.00;;;19.45;;
25319;SDS011;13256;49.012;8.610;2023-05-02T09:16:21;37.10;;;21.05;;
25319;SDS011;13256;49.012;8.610;2023-05-02T09:18:52;37.10;;;20.63;;
25319;SDS011;13256;49.012;8.610;2023-05-02T09:24:15;38.58;;;20.90;;
25319;SDS011;13256;49.012;8.610;2023-05-02T09:26:58;41.78;;;22.42;;
25319;SDS011;13256;49.012;8.610;2023-05-02T09:29:37;39.58;;;22.65;;
25319;SDS011;13256;49.012;8.610;2023-05-02T09:32:05;39.65;;;22.45;;
25319;SDS011;13256;49.012;8.610;2023-05-02T09:34:35;44.40;;;24.08;;
25319;SDS011;13256;49.012;8.610;2023-05-02T09:37:04;38.60;;;20.90;;
25319;SDS011;13256;49.012;8.610;2023-05-02T09:39:38;40.63;;;22.02;;
25319;SDS011;13256;49.012;8.610;2023-05-02T09:42:06;36.95;;;21.80;;
25319;SDS011;13256;49.012;8.610;2023-05-02T09:44:38;35.10;;;21.15;;
25319;SDS011;13256;49.012;8.610;2023-05-02T09:47:05;35.42;;;20.58;;
25319;SDS011;13256;49.012;8.610;2023-05-02T09:49:42;36.22;;;20.20;;
25319;SDS011;13256;49.012;8.610;2023-05-02T09:52:15;34.85;;;19.63;;
25319;SDS011;13256;49.012;8.610;2023-05-02T09:54:46;36.83;;;22.30;;
25319;SDS011;13256;49.012;8.610;2023-05-02T09:57:16;35.17;;;19.90;;
25319;SDS011;13256;49.012;8.610;2023-05-02T09:59:54;37.63;;;20.00;;
25319;SDS011;13256;49.012;8.610;2023-05-02T10:02:21;34.40;;;20.13;;
25319;SDS011;13256;49.012;8.610;2023-05-02T10:04:50;34.80;;;19.63;;
25319;SDS011;13256;49.012;8.610;2023-05-02T10:07:21;32.85;;;17.63;;
25319;SDS011;13256;49.012;8.610;2023-05-02T10:09:48;32.50;;;18.98;;
25319;SDS011;13256;49.012;8.610;2023-05-02T10:12:26;32.40;;;18.58;;
25319;SDS011;13256;49.012;8.610;2023-05-02T10:15:03;35.63;;;20.30;;
25319;SDS011;13256;49.012;8.610;2023-05-02T10:17:30;40.20;;;21.40;;
25319;SDS011;13256;49.012;8.610;2023-05-02T10:20:07;33.67;;;17.50;;
25319;SDS011;13256;49.012;8.610;2023-05-02T10:22:44;35.72;;;19.15;;
25319;SDS011;13256;49.012;8.610;2023-05-02T10:25:18;33.17;;;18.88;;
25319;SDS011;13256;49.012;8.610;2023-05-02T10:27:45;28.77;;;18.20;;
25319;SDS011;13256;49.012;8.610;2023-05-02T10:30:15;32.75;;;18.33;;
25319;SDS011;13256;49.012;8.610;2023-05-02T10:32:45;31.95;;;18.13;;
25319;SDS011;13256;49.012;8.610;2023-05-02T10:35:21;32.55;;;18.48;;
25319;SDS011;13256;49.012;8.610;2023-05-02T10:37:50;34.55;;;18.48;;
25319;SDS011;13256;49.012;8.610;2023-05-02T10:40:19;31.33;;;18.60;;
25319;SDS011;13256;49.012;8.610;2023-05-02T10:42:48;35.78;;;19.65;;
25319;SDS011;13256;49.012;8.610;2023-05-02T10:45:32;36.47;;;19.85;;
25319;SDS011;13256;49.012;8.610;2023-05-02T10:48:25;34.88;;;19.75;;
25319;SDS011;13256;49.012;8.610;2023-05-02T10:50:57;39.55;;;20.48;;
25319;SDS011;13256;49.012;8.610;2023-05-02T10:53:27;36.33;;;19.23;;
25319;SDS011;13256;49.012;8.610;2023-05-02T10:58:47;38.30;;;20.85;;
25319;SDS011;13256;49.012;8.610;2023-05-02T11:04:09;37.17;;;20.88;;
25319;SDS011;13256;49.012;8.610;2023-05-02T11:11:49;29.55;;;16.42;;
25319;SDS011;13256;49.012;8.610;2023-05-02T11:24:55;30.08;;;16.02;;
25319;SDS011;13256;49.012;8.610;2023-05-02T11:37:55;24.90;;;13.75;;
25319;SDS011;13256;49.012;8.610;2023-05-02T11:40:25;21.08;;;12.68;;
25319;SDS011;13256;49.012;8.610;2023-05-02T11:42:53;23.33;;;13.02;;
25319;SDS011;13256;49.012;8.610;2023-05-02T11:45:20;25.05;;;13.73;;
25319;SDS011;13256;49.012;8.610;2023-05-02T11:48:15;24.05;;;14.38;;
25319;SDS011;13256;49.012;8.610;2023-05-02T11:53:20;21.63;;;12.30;;
25319;SDS011;13256;49.012;8.610;2023-05-02T11:55:51;21.00;;;11.85;;
25319;SDS011;13256;49.012;8.610;2023-05-02T11:58:26;22.83;;;11.30;;
25319;SDS011;13256;49.012;8.610;2023-05-02T12:01:13;20.70;;;11.70;;
25319;SDS011;13256;49.012;8.610;2023-05-02T12:03:41;22.23;;;12.70;;
25319;SDS011;13256;49.012;8.610;2023-05-02T12:06:12;23.50;;;12.70;;
25319;SDS011;13256;49.012;8.610;2023-05-02T12:08:44;19.08;;;10.77;;
25319;SDS011;13256;49.012;8.610;2023-05-02T12:11:14;21.85;;;11.73;;
25319;SDS011;13256;49.012;8.610;2023-05-02T12:14:08;18.50;;;11.10;;
25319;SDS011;13256;49.012;8.610;2023-05-02T12:16:40;19.02;;;10.18;;
25319;SDS011;13256;49.012;8.610;2023-05-02T12:19:07;18.73;;;10.43;;
25319;SDS011;13256;49.012;8.610;2023-05-02T12:21:37;17.23;;;9.77;;
25319;SDS011;13256;49.012;8.610;2023-05-02T12:24:06;19.02;;;10.77;;
25319;SDS011;13256;49.012;8.610;2023-05-02T12:26:37;23.27;;;11.75;;
25319;SDS011;13256;49.012;8.610;2023-05-02T12:29:04;17.85;;;11.00;;
25319;SDS011;13256;49.012;8.610;2023-05-02T12:31:34;17.38;;;10.18;;
25319;SDS011;13256;49.012;8.610;2023-05-02T12:34:04;16.60;;;9.18;;
25319;SDS011;13256;49.012;8.610;2023-05-02T12:36:31;15.23;;;9.27;;
25319;SDS011;13256;49.012;8.610;2023-05-02T12:38:59;19.63;;;10.15;;
25319;SDS011;13256;49.012;8.610;2023-05-02T12:41:29;15.45;;;9.35;;
25319;SDS011;13256;49.012;8.610;2023-05-02T12:44:01;18.33;;;10.02;;
25319;SDS011;13256;49.012;8.610;2023-05-02T12:46:29;20.15;;;9.60;;
25319;SDS011;13256;49.012;8.610;2023-05-02T12:49:08;15.98;;;8.80;;
25319;SDS011;13256;49.012;8.610;2023-05-02T12:51:51;14.52;;;8.70;;
25319;SDS011;13256;49.012;8.610;2023-05-02T12:54:22;13.60;;;7.35;;
25319;SDS011;13256;49.012;8.610;2023-05-02T12:57:22;11.18;;;6.95;;
25319;SDS011;13256;49.012;8.610;2023-05-02T12:59:53;15.25;;;8.38;;
25319;SDS011;13256;49.012;8.610;2023-05-02T13:02:24;15.52;;;8.70;;
25319;SDS011;13256;49.012;8.610;2023-05-02T13:04:52;15.73;;;8.43;;
25319;SDS011;13256;49.012;8.610;2023-05-02T13:07:19;14.80;;;8.10;;
25319;SDS011;13256;49.012;8.610;2023-05-02T13:09:47;14.70;;;8.75;;
25319;SDS011;13256;49.012;8.610;2023-05-02T13:12:13;15.70;;;8.13;;
25319;SDS011;13256;49.012;8.610;2023-05-02T13:14:44;13.35;;;8.02;;
25319;SDS011;13256;49.012;8.610;2023-05-02T13:17:13;16.02;;;8.07;;
25319;SDS011;13256;49.012;8.610;2023-05-02T13:19:42;12.70;;;7.82;;
25319;SDS011;13256;49.012;8.610;2023-05-02T13:22:27;16.38;;;7.20;;
25319;SDS011;13256;49.012;8.610;2023-05-02T13:24:54;12.50;;;7.22;;
25319;SDS011;13256;49.012;8.610;2023-05-02T13:27:25;11.63;;;7.05;;
25319;SDS011;13256;49.012;8.610;2023-05-02T13:29:53;15.20;;;7.35;;
25319;SDS011;13256;49.012;8.610;2023-05-02T13:32:20;16.30;;;7.70;;
25319;SDS011;13256;49.012;8.610;2023-05-02T13:34:50;12.50;;;7.22;;
25319;SDS011;13256;49.012;8.610;2023-05-02T13:37:16;10.88;;;6.35;;
25319;SDS011;13256;49.012;8.610;2023-05-02T13:39:43;12.10;;;6.55;;
25319;SDS011;13256;49.012;8.610;2023-05-02T13:42:11;10.50;;;5.85;;
25319;SDS011;13256;49.012;8.610;2023-05-02T13:44:37;9.93;;;6.18;;
25319;SDS011;13256;49.012;8.610;2023-05-02T13:47:07;10.20;;;6.40;;
25319;SDS011;13256;49.012;8.610;2023-05-02T13:49:36;10.07;;;6.57;;
25319;SDS011;13256;49.012;8.610;2023-05-02T13:52:04;9.68;;;5.80;;
25319;SDS011;13256;49.012;8.610;2023-05-02T13:54:35;8.73;;;4.78;;
25319;SDS011;13256;49.012;8.610;2023-05-02T13:57:02;6.15;;;4.22;;
25319;SDS011;13256;49.012;8.610;2023-05-02T13:59:33;7.65;;;4.13;;
25319;SDS011;13256;49.012;8.610;2023-05-02T14:01:59;8.15;;;4.80;;
25319;SDS011;13256;49.012;8.610;2023-05-02T14:04:30;6.72;;;4.50;;
25319;SDS011;13256;49.012;8.610;2023-05-02T14:06:57;7.47;;;4.10;;
25319;SDS011;13256;49.012;8.610;2023-05-02T14:09:23;6.25;;;3.95;;
25319;SDS011;13256;49.012;8.610;2023-05-02T14:11:51;5.05;;;3.05;;
25319;SDS011;13256;49.012;8.610;2023-05-02T14:14:17;4.75;;;2.47;;
25319;SDS011;13256;49.012;8.610;2023-05-02T14:16:52;6.90;;;3.50;;
25319;SDS011;13256;49.012;8.610;2023-05-02T14:19:18;6.30;;;3.45;;
25319;SDS011;13256;49.012;8.610;2023-05-02T14:21:45;6.07;;;3.75;;
25319;SDS011;13256;49.012;8.610;2023-05-02T14:24:17;8.65;;;3.28;;
25319;SDS011;13256;49.012;8.610;2023-05-02T14:26:45;6.22;;;3.30;;
25319;SDS011;13256;49.012;8.610;2023-05-02T14:29:14;4.70;;;3.30;;
25319;SDS011;13256;49.012;8.610;2023-05-02T14:31:44;7.63;;;2.90;;
25319;SDS011;13256;49.012;8.610;2023-05-02T14:34:11;5.18;;;3.05;;
25319;SDS011;13256;49.012;8.610;2023-05-02T14:36:40;5.03;;;2.95;;
25319;SDS011;13256;49.012;8.610;2023-05-02T14:39:36;4.32;;;3.20;;
25319;SDS011;13256;49.012;8.610;2023-05-02T14:56:45;4.85;;;3.40;;
25319;SDS011;13256;49.012;8.610;2023-05-02T14:59:17;4.70;;;2.85;;
25319;SDS011;13256;49.012;8.610;2023-05-02T15:01:50;4.97;;;2.92;;
25319;SDS011;13256;49.012;8.610;2023-05-02T15:04:42;5.25;;;2.85;;
25319;SDS011;13256;49.012;8.610;2023-05-02T15:07:15;5.53;;;3.22;;
25319;SDS011;13256;49.012;8.610;2023-05-02T15:09:43;5.50;;;2.40;;
25319;SDS011;13256;49.012;8.610;2023-05-02T15:12:09;4.35;;;2.28;;
25319;SDS011;13256;49.012;8.610;2023-05-02T15:14:37;3.97;;;2.30;;
25319;SDS011;13256;49.012;8.610;2023-05-02T15:17:05;3.85;;;2.33;;
25319;SDS011;13256;49.012;8.610;2023-05-02T15:19:32;4.18;;;2.13;;
25319;SDS011;13256;49.012;8.610;2023-05-02T15:22:00;2.50;;;1.50;;
25319;SDS011;13256;49.012;8.610;2023-05-02T15:24:29;2.47;;;1.75;;
25319;SDS011;13256;49.012;8.610;2023-05-02T15:27:01;1.77;;;1.52;;
25319;SDS011;13256;49.012;8.610;2023-05-02T15:29:56;2.45;;;1.73;;
25319;SDS011;13256;49.012;8.610;2023-05-02T15:32:23;1.80;;;1.50;;
25319;SDS011;13256;49.012;8.610;2023-05-02T15:35:01;1.67;;;1.30;;
25319;SDS011;13256;49.012;8.610;2023-05-02T15:37:34;3.97;;;1.95;;
25319;SDS011;13256;49.012;8.610;2023-05-02T15:40:04;2.67;;;1.85;;
25319;SDS011;13256;49.012;8.610;2023-05-02T15:42:33;5.40;;;1.75;;
25319;SDS011;13256;49.012;8.610;2023-05-02T15:45:03;4.30;;;2.10;;
25319;SDS011;13256;49.012;8.610;2023-05-02T15:47:32;4.40;;;2.40;;
25319;SDS011;13256;49.012;8.610;2023-05-02T15:50:03;4.43;;;2.25;;
25319;SDS011;13256;49.012;8.610;2023-05-02T15:52:30;4.85;;;2.45;;
25319;SDS011;13256;49.012;8.610;2023-05-02T15:55:00;4.22;;;2.10;;
25319;SDS011;13256;49.012;8.610;2023-05-02T15:57:29;2.92;;;1.70;;
25319;SDS011;13256;49.012;8.610;2023-05-02T15:59:56;2.55;;;1.92;;
25319;SDS011;13256;49.012;8.610;2023-05-02T16:02:23;3.40;;;1.73;;
25319;SDS011;13256;49.012;8.610;2023-05-02T16:04:53;3.22;;;1.67;;
25319;SDS011;13256;49.012;8.610;2023-05-02T16:07:20;2.88;;;1.58;;
25319;SDS011;13256;49.012;8.610;2023-05-02T16:09:50;3.17;;;1.88;;
25319;SDS011;13256;49.012;8.610;2023-05-02T16:12:19;3.38;;;1.55;;
25319;SDS011;13256;49.012;8.610;2023-05-02T16:14:45;2.63;;;1.50;;
25319;SDS011;13256;49.012;8.610;2023-05-02T16:17:12;3.53;;;1.77;;
25319;SDS011;13256;49.012;8.610;2023-05-02T16:20:07;3.33;;;1.90;;
25319;SDS011;13256;49.012;8.610;2023-05-02T16:22:43;8.68;;;2.58;;
25319;SDS011;13256;49.012;8.610;2023-05-02T16:25:14;3.00;;;2.03;;
25319;SDS011;13256;49.012;8.610;2023-05-02T16:27:41;4.10;;;2.00;;
25319;SDS011;13256;49.012;8.610;2023-05-02T16:30:11;4.15;;;2.15;;
25319;SDS011;13256;49.012;8.610;2023-05-02T16:32:38;4.55;;;2.40;;
25319;SDS011;13256;49.012;8.610;2023-05-02T16:35:05;5.60;;;3.17;;
25319;SDS011;13256;49.012;8.610;2023-05-02T16:37:35;5.40;;;2.85;;
25319;SDS011;13256;49.012;8.610;2023-05-02T16:40:08;5.20;;;3.03;;
25319;SDS011;13256;49.012;8.610;2023-05-02T16:42:37;4.85;;;2.80;;